Time;durP1;ratioP1;P1;durP2;ratioP2;P2;SDS_P1;SDS_P2;PMS_P1;PMS_P2;Temp;Humidity;BMP_temperature;BMP_pressure;BME280_temperature;BME280_humidity;BME280_pressure;Samples;Min_cycle;Max_cycle;Signal;HPM_P1;HPM_P2
2021/12/17 00:04:54;;;;;;;124.93;20.25;;;;;;;7.69;100.00;103946.44;4967576;28;20030;-77
2021/12/17 00:07:13;;;;;;;133.23;19.55;;;;;;;7.61;100.00;103949.25;4981533;28;20081;-76
2021/12/17 00:09:40;;;;;;;127.10;19.98;;;;;;;7.62;100.00;103957.28;4985151;28;20117;-77
2021/12/17 00:12:09;;;;;;;163.20;22.52;;;;;;;7.72;100.00;103960.69;4985105;28;20025;-70
2021/12/17 00:14:37;;;;;;;161.95;23.85;;;;;;;7.73;100.00;103949.06;4982292;28;20038;-70
2021/12/17 00:17:07;;;;;;;140.60;19.02;;;;;;;7.61;100.00;103962.63;4979591;28;20022;-70
2021/12/17 00:49:02;;;;;;;139.32;18.92;;;;;;;7.56;100.00;103948.44;4984692;28;20487;-70
2021/12/17 00:54:22;;;;;;;148.38;20.92;;;;;;;7.49;100.00;103955.66;4983476;28;20040;-77
2021/12/17 00:56:51;;;;;;;131.98;18.15;;;;;;;7.49;100.00;103953.91;4986287;28;20038;-77
2021/12/17 00:59:16;;;;;;;115.55;18.33;;;;;;;7.50;100.00;103950.31;4966385;28;20018;-70
2021/12/17 01:01:43;;;;;;;122.40;18.95;;;;;;;7.56;100.00;103949.34;4990489;28;20033;-70
2021/12/17 01:04:08;;;;;;;127.72;18.92;;;;;;;7.48;100.00;103945.88;4966803;28;20092;-70
2021/12/17 01:06:34;;;;;;;129.18;20.52;;;;;;;7.61;100.00;103938.56;4985754;28;20888;-69
2021/12/17 01:08:59;;;;;;;133.30;18.83;;;;;;;7.57;100.00;103950.19;4985138;28;20026;-70
2021/12/17 01:11:25;;;;;;;113.43;18.70;;;;;;;7.60;100.00;103947.47;4977895;28;20053;-70
2021/12/17 01:13:50;;;;;;;124.68;17.73;;;;;;;7.46;100.00;103924.53;4986991;28;20045;-77
2021/12/17 01:16:17;;;;;;;133.45;21.33;;;;;;;7.56;100.00;103925.28;4983740;28;20052;-70
2021/12/17 01:21:38;;;;;;;120.15;17.60;;;;;;;7.55;100.00;103927.97;4984679;28;20030;-77
2021/12/17 01:42:42;;;;;;;133.77;18.27;;;;;;;7.46;100.00;103931.66;4963607;28;20079;-77
2021/12/17 01:45:08;;;;;;;126.82;16.63;;;;;;;7.48;100.00;103925.41;4964725;28;20034;-77
2021/12/17 01:47:34;;;;;;;112.53;17.17;;;;;;;7.35;100.00;103899.72;4941713;28;20073;-76
2021/12/17 02:00:53;;;;;;;129.55;18.40;;;;;;;7.54;100.00;103937.78;4959650;28;20101;-70
2021/12/17 02:03:19;;;;;;;133.70;18.25;;;;;;;7.50;100.00;103931.59;4962877;28;20034;-69
2021/12/17 02:05:45;;;;;;;121.28;17.80;;;;;;;7.56;100.00;103933.28;4945508;28;20123;-70
2021/12/17 02:08:11;;;;;;;114.07;17.55;;;;;;;7.49;100.00;103921.81;4948224;28;20340;-69
2021/12/17 02:32:11;;;;;;;121.88;17.38;;;;;;;7.60;100.00;103955.50;4947522;28;20674;-69
2021/12/17 02:37:13;;;;;;;116.65;16.80;;;;;;;7.49;100.00;103936.97;4961710;28;20034;-69
2021/12/17 02:40:06;;;;;;;121.85;19.52;;;;;;;7.54;100.00;103943.13;4961724;28;20058;-76
2021/12/17 02:45:31;;;;;;;120.22;18.27;;;;;;;7.64;100.00;103954.56;4954894;28;20074;-69
2021/12/17 02:45:32;;;;;;;108.53;20.45;;;;;;;7.63;100.00;103944.75;4963572;28;20133;-69
2021/12/17 02:47:59;;;;;;;113.07;16.85;;;;;;;7.65;100.00;103948.31;4959182;28;20039;-69
2021/12/17 02:50:24;;;;;;;132.43;20.45;;;;;;;7.61;100.00;103939.44;4963739;28;20030;-69
2021/12/17 02:52:51;;;;;;;112.35;17.92;;;;;;;7.54;100.00;103924.41;4962174;28;20529;-69
2021/12/17 02:55:18;;;;;;;143.00;19.73;;;;;;;7.66;100.00;103942.03;4946542;28;20065;-69
2021/12/17 02:57:44;;;;;;;133.77;18.23;;;;;;;7.64;100.00;103943.84;4961593;28;20122;-76
2021/12/17 03:00:10;;;;;;;134.27;20.13;;;;;;;7.61;100.00;103950.16;4929792;28;20436;-69
2021/12/17 03:02:38;;;;;;;116.50;16.08;;;;;;;7.61;100.00;103955.50;4961725;28;20126;-77
2021/12/17 03:05:04;;;;;;;110.47;18.10;;;;;;;7.59;100.00;103946.63;4964025;28;20022;-76
2021/12/17 03:07:29;;;;;;;96.45;16.42;;;;;;;7.58;100.00;103946.63;4961419;28;20492;-76
2021/12/17 03:10:06;;;;;;;104.78;17.55;;;;;;;7.60;100.00;103952.84;4963548;28;20062;-69
2021/12/17 03:12:44;;;;;;;119.18;17.75;;;;;;;7.54;100.00;103947.59;4963913;28;20037;-68
2021/12/17 03:15:25;;;;;;;117.22;16.88;;;;;;;7.56;100.00;103943.97;4961308;28;20034;-69
2021/12/17 03:25:47;;;;;;;119.47;17.85;;;;;;;7.54;100.00;103928.88;4961045;28;20677;-69
2021/12/17 03:28:13;;;;;;;92.13;14.95;;;;;;;7.51;100.00;103916.44;4961184;28;20038;-69
2021/12/17 03:30:38;;;;;;;100.65;16.77;;;;;;;7.60;100.00;103932.34;4963742;28;20506;-69
2021/12/17 03:33:04;;;;;;;99.65;16.25;;;;;;;7.60;100.00;103932.34;4962990;28;20038;-76
2021/12/17 03:35:29;;;;;;;88.68;16.48;;;;;;;7.58;100.00;103925.22;4959150;28;20070;-76
2021/12/17 03:37:54;;;;;;;106.72;16.13;;;;;;;7.57;100.00;103936.84;4964452;28;20038;-76
2021/12/17 03:40:20;;;;;;;107.15;15.90;;;;;;;7.46;100.00;103926.31;4963676;28;20034;-75
2021/12/17 03:42:47;;;;;;;102.88;16.95;;;;;;;7.52;100.00;103938.72;4960501;28;20162;-76
2021/12/17 03:45:13;;;;;;;94.50;16.00;;;;;;;7.45;100.00;103927.22;4963747;28;20028;-76
2021/12/17 03:47:38;;;;;;;95.78;16.58;;;;;;;7.48;100.00;103941.44;4962338;28;20402;-76
2021/12/17 03:50:04;;;;;;;96.10;15.82;;;;;;;7.49;100.00;103939.63;4962910;28;20046;-76
2021/12/17 03:52:30;;;;;;;82.35;14.90;;;;;;;7.52;100.00;103939.59;4944504;28;20480;-76
2021/12/17 03:54:55;;;;;;;112.53;16.85;;;;;;;7.41;100.00;103930.88;4961926;28;20023;-76
2021/12/17 03:57:21;;;;;;;101.30;15.73;;;;;;;7.53;100.00;103936.00;4959979;28;20640;-76
2021/12/17 03:59:46;;;;;;;92.20;16.08;;;;;;;7.53;100.00;103935.13;4963557;28;20057;-76
2021/12/17 04:02:12;;;;;;;95.90;14.93;;;;;;;7.59;100.00;103940.38;4960722;28;20478;-76
2021/12/17 04:04:37;;;;;;;83.68;14.57;;;;;;;7.55;100.00;103947.56;4958952;28;20482;-76
2021/12/17 04:07:02;;;;;;;101.53;16.20;;;;;;;7.50;100.00;103931.59;4960751;28;20065;-76
2021/12/17 04:09:30;;;;;;;100.25;14.93;;;;;;;7.52;100.00;103936.03;4962879;28;20045;-69
2021/12/17 04:11:56;;;;;;;107.65;15.95;;;;;;;7.40;100.00;103919.28;4961023;28;20497;-68
2021/12/17 04:14:32;;;;;;;88.90;16.95;;;;;;;7.56;100.00;103941.31;4966200;28;20035;-68
2021/12/17 04:17:02;;;;;;;97.10;15.13;;;;;;;7.50;100.00;103939.63;4963924;28;20041;-68
2021/12/17 04:19:28;;;;;;;105.18;15.25;;;;;;;7.46;100.00;103935.22;4961449;28;20046;-76
2021/12/17 04:21:53;;;;;;;86.43;14.48;;;;;;;7.44;100.00;103931.69;4966289;28;20141;-76
2021/12/17 04:24:18;;;;;;;95.07;15.77;;;;;;;7.34;100.00;103914.91;4968119;28;20023;-75
2021/12/17 04:26:44;;;;;;;95.43;14.38;;;;;;;7.40;100.00;103929.97;4963923;28;20039;-69
2021/12/17 04:29:09;;;;;;;92.32;13.45;;;;;;;7.41;100.00;103931.72;4963597;28;20093;-69
2021/12/17 04:31:35;;;;;;;84.65;14.77;;;;;;;7.39;100.00;103936.22;4964721;28;20023;-69
2021/12/17 04:34:00;;;;;;;67.50;12.15;;;;;;;7.43;100.00;103934.38;4965610;28;20049;-68
2021/12/17 04:36:29;;;;;;;86.43;14.85;;;;;;;7.41;100.00;103936.22;4966289;28;20110;-68
2021/12/17 04:38:56;;;;;;;78.47;12.50;;;;;;;7.43;100.00;103937.94;4962824;28;20054;-68
2021/12/17 04:44:16;;;;;;;76.57;13.35;;;;;;;7.44;100.00;103931.69;4964677;28;20045;-68
2021/12/17 04:57:14;;;;;;;80.18;12.77;;;;;;;7.46;100.00;103937.00;4964405;28;20866;-68
2021/12/17 04:57:48;;;;;;;65.00;11.77;;;;;;;7.45;100.00;103938.81;4962091;28;20442;-68
2021/12/17 05:00:20;;;;;;;76.60;14.05;;;;;;;7.49;100.00;103943.19;4962699;28;20061;-69
2021/12/17 05:02:49;;;;;;;66.22;12.75;;;;;;;7.45;100.00;103945.91;4965522;28;20356;-68
2021/12/17 05:05:16;;;;;;;74.65;12.18;;;;;;;7.43;100.00;103934.38;4962129;28;20826;-69
2021/12/17 05:07:47;;;;;;;68.60;12.32;;;;;;;7.45;100.00;103943.25;4964374;28;20109;-75
2021/12/17 05:10:30;;;;;;;69.75;12.32;;;;;;;7.45;100.00;103932.56;4949774;28;20037;-76
2021/12/17 05:18:26;;;;;;;54.00;10.55;;;;;;;7.40;100.00;103934.44;4962748;28;20045;-75
2021/12/17 05:21:00;;;;;;;75.85;13.07;;;;;;;7.40;100.00;103934.44;4968131;28;20145;-75
2021/12/17 05:23:32;;;;;;;60.63;12.10;;;;;;;7.41;100.00;103934.41;4962619;28;20292;-75
2021/12/17 05:26:07;;;;;;;52.50;10.63;;;;;;;7.41;100.00;103941.56;4948415;28;20035;-75
2021/12/17 05:28:32;;;;;;;57.97;10.88;;;;;;;7.41;100.00;103934.41;4964445;28;20069;-75
2021/12/17 05:30:58;;;;;;;72.53;12.85;;;;;;;7.35;100.00;103943.41;4964754;28;20038;-75
2021/12/17 05:33:25;;;;;;;63.75;12.57;;;;;;;7.39;100.00;103936.22;4964926;28;20051;-75
2021/12/17 05:35:51;;;;;;;64.18;11.65;;;;;;;7.24;100.00;103915.06;4963043;28;20102;-75
2021/12/17 05:38:18;;;;;;;65.15;11.48;;;;;;;7.39;100.00;103946.03;4946776;28;20114;-75
2021/12/17 05:40:44;;;;;;;62.05;11.45;;;;;;;7.31;100.00;103932.75;4959042;28;20035;-75
2021/12/17 05:43:10;;;;;;;75.68;12.80;;;;;;;7.30;100.00;103947.94;4946727;28;20069;-76
2021/12/17 05:46:03;;;;;;;63.15;12.00;;;;;;;7.37;100.00;103951.38;4948108;28;20118;-75
2021/12/17 05:48:28;;;;;;;57.45;10.65;;;;;;;7.37;100.00;103947.84;4964742;28;20552;-75
2021/12/17 05:50:56;;;;;;;56.22;10.95;;;;;;;7.40;100.00;103954.03;4970081;28;20066;-76
2021/12/17 05:53:22;;;;;;;57.97;11.88;;;;;;;7.42;100.00;103954.88;4966553;28;20022;-68
2021/12/17 05:55:48;;;;;;;51.05;11.63;;;;;;;7.43;100.00;103955.75;4963179;28;20544;-68
2021/12/17 05:58:14;;;;;;;48.03;11.18;;;;;;;7.43;100.00;103961.09;4962957;28;20426;-68
2021/12/17 06:00:41;;;;;;;52.97;10.98;;;;;;;7.29;100.00;103931.88;4965006;28;20798;-68
2021/12/17 06:03:06;;;;;;;58.72;11.60;;;;;;;7.44;100.00;103962.88;4964662;28;20031;-68
2021/12/17 06:05:32;;;;;;;51.80;11.15;;;;;;;7.39;100.00;103967.44;4966072;28;20075;-68
2021/12/17 06:07:58;;;;;;;52.53;10.77;;;;;;;7.33;100.00;103960.34;4943676;28;20118;-68
2021/12/17 06:10:23;;;;;;;66.88;12.82;;;;;;;7.40;100.00;103962.03;4966548;28;20088;-68
2021/12/17 06:12:49;;;;;;;52.58;11.15;;;;;;;7.41;100.00;103963.81;4962230;28;20038;-75
2021/12/17 06:15:17;;;;;;;57.35;11.32;;;;;;;7.39;100.00;103957.59;4965401;28;20039;-75
2021/12/17 06:17:43;;;;;;;49.72;10.40;;;;;;;7.28;100.00;103967.56;4961420;28;20035;-75
2021/12/17 06:20:10;;;;;;;48.08;11.52;;;;;;;7.31;100.00;103971.06;4966272;28;20553;-68
2021/12/17 06:22:36;;;;;;;52.22;10.48;;;;;;;7.29;100.00;103972.88;4962386;28;20038;-68
2021/12/17 06:25:03;;;;;;;49.65;10.07;;;;;;;7.28;100.00;103965.78;4961373;28;20050;-70
2021/12/17 06:27:28;;;;;;;46.47;10.93;;;;;;;7.24;100.00;103952.47;4961787;28;20027;-68
2021/12/17 06:29:54;;;;;;;47.92;10.52;;;;;;;7.30;100.00;103971.09;4961512;28;20062;-68
2021/12/17 06:32:21;;;;;;;48.78;10.57;;;;;;;7.28;100.00;103963.09;4962761;28;20041;-68
2021/12/17 06:34:46;;;;;;;55.88;11.02;;;;;;;7.34;100.00;103972.81;4962475;28;20582;-68
2021/12/17 06:37:12;;;;;;;49.05;10.00;;;;;;;7.40;100.00;103966.53;4962871;28;20042;-68
2021/12/17 06:39:38;;;;;;;53.10;9.90;;;;;;;7.27;100.00;103941.75;4953087;28;20030;-75
2021/12/17 06:42:04;;;;;;;52.35;10.18;;;;;;;7.37;100.00;103963.88;4957502;28;20034;-75
2021/12/17 06:44:30;;;;;;;53.78;11.93;;;;;;;7.34;100.00;103967.47;4957352;28;20031;-75
2021/12/17 06:47:02;;;;;;;50.78;10.30;;;;;;;7.34;100.00;103964.78;4952823;28;20097;-75
2021/12/17 06:55:03;;;;;;;45.33;10.03;;;;;;;7.40;100.00;103983.44;4955211;28;20565;-75
2021/12/17 07:00:36;;;;;;;52.15;10.82;;;;;;;7.44;100.00;103979.81;4959593;28;20061;-75
2021/12/17 07:10:56;;;;;;;56.55;11.35;;;;;;;7.28;100.00;103949.72;4957508;28;20047;-75
2021/12/17 07:21:53;;;;;;;53.47;11.32;;;;;;;7.40;100.00;103956.69;4958049;28;20699;-75
2021/12/17 07:40:04;;;;;;;50.53;12.98;;;;;;;7.35;100.00;103945.19;4943463;28;20035;-75
2021/12/17 07:42:30;;;;;;;51.47;11.95;;;;;;;7.35;100.00;103950.53;4958718;28;20058;-75
2021/12/17 07:44:56;;;;;;;45.25;10.32;;;;;;;7.41;100.00;103960.28;4954341;28;20134;-74
2021/12/17 07:47:21;;;;;;;45.97;9.63;;;;;;;7.43;100.00;103963.78;4958563;28;20489;-68
2021/12/17 07:49:46;;;;;;;47.58;10.38;;;;;;;7.40;100.00;103961.16;4964660;28;20058;-68
2021/12/17 07:52:12;;;;;;;46.35;11.15;;;;;;;7.37;100.00;103955.88;4963244;28;20588;-68
2021/12/17 07:54:37;;;;;;;42.80;8.90;;;;;;;7.46;100.00;103972.66;4945103;28;20431;-68
2021/12/17 07:57:03;;;;;;;46.28;9.77;;;;;;;7.42;100.00;103968.25;4962215;28;20042;-68
2021/12/17 07:59:28;;;;;;;55.00;10.50;;;;;;;7.46;100.00;103977.09;4965815;28;20034;-68
2021/12/17 08:01:53;;;;;;;54.33;9.70;;;;;;;7.41;100.00;103979.84;4963522;28;20058;-68
2021/12/17 08:04:19;;;;;;;46.30;9.90;;;;;;;7.42;100.00;103981.63;4963177;28;20421;-75
2021/12/17 08:06:44;;;;;;;43.28;10.02;;;;;;;7.43;100.00;103988.72;4963566;28;20524;-75
2021/12/17 08:09:10;;;;;;;49.80;9.88;;;;;;;7.36;100.00;103968.34;4965431;28;20046;-76
2021/12/17 08:11:39;;;;;;;55.80;10.98;;;;;;;7.41;100.00;103974.50;4965794;28;20027;-76
2021/12/17 08:14:09;;;;;;;52.65;10.25;;;;;;;7.48;100.00;103970.84;4963924;28;20771;-75
2021/12/17 08:16:43;;;;;;;56.35;11.05;;;;;;;7.52;100.00;103981.50;4960787;28;20415;-75
2021/12/17 08:23:20;;;;;;;60.47;9.88;;;;;;;7.48;100.00;103975.28;4963367;28;20030;-75
2021/12/17 08:24:51;;;;;;;;;;;;;;;7.49;100.00;103983.31;4960372;28;20034;-75
2021/12/17 08:27:30;;;;;;;56.65;10.88;;;;;;;7.52;100.00;103969.00;4959035;28;19922;-77
2021/12/17 08:30:19;;;;;;;47.42;10.38;;;;;;;7.58;100.00;103987.63;4963331;28;20034;-75
2021/12/17 08:32:43;;;;;;;66.82;11.30;;;;;;;7.59;100.00;103989.41;4963643;28;20037;-68
2021/12/17 08:35:09;;;;;;;52.47;10.60;;;;;;;7.64;100.00;104000.03;4963996;28;20026;-68
2021/12/17 08:37:34;;;;;;;62.50;11.77;;;;;;;7.60;100.00;103979.56;4959808;28;20023;-68
2021/12/17 08:40:00;;;;;;;72.50;11.82;;;;;;;7.67;100.00;103985.75;4959929;28;20038;-68
2021/12/17 08:42:26;;;;;;;66.70;12.02;;;;;;;7.68;100.00;103983.03;4944076;28;20490;-68
2021/12/17 08:44:52;;;;;;;65.13;11.85;;;;;;;7.74;100.00;103984.72;4961819;28;20097;-75
2021/12/17 08:47:17;;;;;;;62.83;11.85;;;;;;;7.75;100.00;103989.16;4960094;28;20019;-75
2021/12/17 08:49:44;;;;;;;70.60;12.45;;;;;;;7.68;100.00;103991.06;4964385;28;20039;-75
2021/12/17 08:52:10;;;;;;;65.70;11.27;;;;;;;7.71;100.00;103993.69;4957499;28;20031;-68
2021/12/17 08:54:36;;;;;;;61.22;12.07;;;;;;;7.75;100.00;103992.72;4963212;28;20038;-68
2021/12/17 08:57:01;;;;;;;62.83;11.20;;;;;;;7.76;100.00;103990.94;4961050;28;20106;-68
2021/12/17 08:59:29;;;;;;;59.92;11.73;;;;;;;7.75;100.00;103989.16;4958813;28;20114;-68
2021/12/17 09:01:54;;;;;;;52.70;10.52;;;;;;;7.65;100.00;103981.28;4963286;28;20026;-68
2021/12/17 09:04:19;;;;;;;54.92;10.30;;;;;;;7.78;100.00;104014.09;4967736;28;20031;-68
2021/12/17 09:06:45;;;;;;;58.30;10.48;;;;;;;7.70;100.00;103997.25;4969206;28;20038;-68
2021/12/17 09:09:10;;;;;;;67.85;12.00;;;;;;;7.74;100.00;104009.69;4967547;28;20085;-68
2021/12/17 09:11:36;;;;;;;73.68;11.88;;;;;;;7.62;100.00;103989.34;4967336;28;20043;-75
2021/12/17 09:14:03;;;;;;;54.90;11.13;;;;;;;7.60;100.00;103990.28;4966918;28;20506;-75
2021/12/17 09:16:29;;;;;;;55.03;10.35;;;;;;;7.60;100.00;104014.34;4963836;28;20035;-75
2021/12/17 09:18:56;;;;;;;53.58;10.48;;;;;;;7.68;100.00;104011.56;4965572;28;20031;-75
2021/12/17 09:21:21;;;;;;;56.53;10.35;;;;;;;7.69;100.00;104010.63;4966822;28;20834;-76
2021/12/17 09:23:47;;;;;;;54.97;9.55;;;;;;;7.75;100.00;104011.47;4965841;28;20031;-75
2021/12/17 09:26:14;;;;;;;60.40;9.98;;;;;;;7.72;100.00;103999.91;4952179;28;20031;-75
2021/12/17 09:28:39;;;;;;;49.00;9.68;;;;;;;7.81;100.00;104027.38;4961713;28;20023;-68
2021/12/17 09:31:06;;;;;;;54.47;9.88;;;;;;;7.78;100.00;104014.09;4962492;28;20054;-68
2021/12/17 09:33:32;;;;;;;42.72;8.75;;;;;;;7.89;100.00;104019.28;4963556;28;20030;-68
2021/12/17 09:35:58;;;;;;;44.55;8.73;;;;;;;7.77;100.00;104012.31;4961849;28;20034;-68
2021/12/17 09:38:23;;;;;;;49.97;8.73;;;;;;;7.76;100.00;104015.91;4965752;28;20042;-68
2021/12/17 09:40:49;;;;;;;46.28;8.95;;;;;;;7.87;100.00;104029.09;4962456;28;20035;-68
2021/12/17 09:43:15;;;;;;;31.83;7.70;;;;;;;7.81;100.00;104032.75;4957756;28;20031;-68
2021/12/17 09:45:41;;;;;;;42.00;7.20;;;;;;;7.84;100.00;104034.50;4963614;28;20026;-68
2021/12/17 09:48:06;;;;;;;30.73;7.45;;;;;;;7.74;100.00;104032.84;4964544;28;20034;-69
2021/12/17 09:50:32;;;;;;;31.40;6.68;;;;;;;7.80;100.00;104035.44;4967267;28;20034;-68
2021/12/17 09:52:57;;;;;;;28.08;6.57;;;;;;;7.92;100.00;104040.63;4964963;28;20768;-75
2021/12/17 09:55:23;;;;;;;28.45;6.43;;;;;;;7.95;100.00;104043.22;4968821;28;20022;-68
2021/12/17 09:57:49;;;;;;;37.05;7.38;;;;;;;7.93;100.00;104053.09;4952757;28;20026;-68
2021/12/17 10:00:23;;;;;;;32.20;6.40;;;;;;;7.99;100.00;104049.44;4970185;28;20374;-68
2021/12/17 10:02:50;;;;;;;24.63;6.40;;;;;;;8.01;100.00;104058.34;4963985;28;20038;-68
2021/12/17 10:05:26;;;;;;;31.58;6.13;;;;;;;8.02;100.00;104068.13;4964264;28;20121;-68
2021/12/17 10:08:04;;;;;;;26.63;6.22;;;;;;;8.00;100.00;104064.59;4948935;28;20034;-68
2021/12/17 10:10:40;;;;;;;25.08;7.25;;;;;;;7.90;100.00;104062.94;4966413;28;20022;-68
2021/12/17 10:13:11;;;;;;;27.60;6.00;;;;;;;7.95;100.00;104056.63;4949482;28;20207;-68
2021/12/17 10:15:38;;;;;;;26.15;6.88;;;;;;;7.97;100.00;104061.97;4967626;28;20109;-69
2021/12/17 10:18:04;;;;;;;33.30;6.47;;;;;;;8.07;100.00;104060.91;4963290;28;20038;-75
2021/12/17 10:20:32;;;;;;;33.85;6.97;;;;;;;8.02;100.00;104059.19;4965977;28;20031;-74
2021/12/17 10:22:59;;;;;;;25.38;5.85;;;;;;;8.04;100.00;104068.09;4960438;28;20490;-75
2021/12/17 10:25:26;;;;;;;28.73;6.18;;;;;;;7.90;100.00;104053.16;4966897;28;20145;-75
2021/12/17 10:27:57;;;;;;;27.48;6.72;;;;;;;7.94;100.00;104045.94;4966112;28;20034;-74
2021/12/17 10:30:23;;;;;;;20.95;5.72;;;;;;;8.08;100.00;104051.94;4963934;28;20034;-75
2021/12/17 10:32:51;;;;;;;15.90;5.35;;;;;;;8.08;100.00;104059.97;4959749;28;20030;-75
2021/12/17 10:35:22;;;;;;;23.60;5.60;;;;;;;8.07;100.00;104063.59;4968379;28;20030;-75
2021/12/17 10:37:56;;;;;;;22.10;5.45;;;;;;;8.07;100.00;104060.91;4964663;28;20049;-75
2021/12/17 10:40:36;;;;;;;17.40;5.07;;;;;;;8.10;100.00;104070.69;4968440;28;20210;-75
2021/12/17 10:43:26;;;;;;;13.15;4.47;;;;;;;7.98;100.00;104063.72;4948454;28;20037;-75
2021/12/17 10:46:04;;;;;;;19.02;4.10;;;;;;;7.87;100.00;104039.81;4961050;28;20475;-75
2021/12/17 10:48:47;;;;;;;19.17;5.35;;;;;;;8.00;100.00;104056.56;4966051;28;20476;-75
2021/12/17 10:54:15;;;;;;;15.13;4.20;;;;;;;8.15;100.00;104065.25;4964420;28;20030;-74
2021/12/17 10:56:46;;;;;;;16.35;4.28;;;;;;;8.02;100.00;104067.22;4951407;28;20121;-68
2021/12/17 10:59:18;;;;;;;11.25;3.97;;;;;;;8.10;100.00;104066.19;4966309;28;20532;-68
2021/12/17 11:01:46;;;;;;;12.93;4.20;;;;;;;8.14;100.00;104067.06;4964731;28;20042;-68
2021/12/17 11:04:14;;;;;;;12.65;4.35;;;;;;;8.09;100.00;104061.75;4969066;28;20529;-69
2021/12/17 11:07:03;;;;;;;11.55;4.45;;;;;;;8.03;100.00;104071.66;4964169;28;20128;-68
2021/12/17 11:09:41;;;;;;;8.40;3.78;;;;;;;8.09;100.00;104068.91;4965077;28;20030;-69
2021/12/17 11:12:38;;;;;;;12.75;4.63;;;;;;;8.23;100.00;104066.88;4963197;28;20050;-75
2021/12/17 11:15:12;;;;;;;12.23;4.45;;;;;;;8.25;100.00;104058.84;4962629;28;20037;-68
2021/12/17 11:17:39;;;;;;;13.85;4.25;;;;;;;8.20;100.00;104056.25;4961438;28;20031;-68
2021/12/17 11:20:11;;;;;;;16.25;4.38;;;;;;;8.13;100.00;104040.28;4962762;28;20101;-68
2021/12/17 11:22:39;;;;;;;13.88;4.43;;;;;;;8.22;100.00;104046.38;4964309;28;20034;-68
2021/12/17 11:25:05;;;;;;;12.52;5.30;;;;;;;8.33;100.00;104056.94;4959022;28;20114;-68
2021/12/17 11:27:31;;;;;;;15.75;4.60;;;;;;;8.21;100.00;104051.78;4960496;28;20117;-68
2021/12/17 11:29:56;;;;;;;11.30;4.18;;;;;;;8.23;100.00;104055.31;4943104;28;20031;-68
2021/12/17 11:32:23;;;;;;;10.85;4.68;;;;;;;8.23;100.00;104052.63;4959240;28;20035;-69
2021/12/17 11:34:48;;;;;;;14.15;4.65;;;;;;;8.37;100.00;104049.72;4960838;28;20034;-68
2021/12/17 11:37:14;;;;;;;9.80;3.88;;;;;;;8.34;100.00;104052.44;4963926;28;20041;-68
2021/12/17 11:39:45;;;;;;;12.88;3.47;;;;;;;8.24;100.00;104052.59;4966812;28;20045;-68
2021/12/17 11:42:28;;;;;;;10.40;4.05;;;;;;;8.15;100.00;104038.47;4962647;28;20566;-68
2021/12/17 11:45:23;;;;;;;12.07;4.65;;;;;;;8.08;100.00;104035.03;4944357;28;20030;-69
2021/12/17 11:47:41;;;;;;;6.72;2.90;;;;;;;8.22;100.00;104046.38;4950487;28;20077;-68
2021/12/17 11:50:09;;;;;;;6.47;2.97;;;;;;;8.23;100.00;104045.47;4960849;28;20545;-69
2021/12/17 11:52:34;;;;;;;7.43;3.75;;;;;;;8.27;100.00;104051.69;4964738;28;20058;-68
2021/12/17 11:55:30;;;;;;;7.47;3.53;;;;;;;8.02;100.00;104022.63;4968259;28;20038;-68
2021/12/17 11:57:59;;;;;;;10.45;3.63;;;;;;;8.08;100.00;104032.34;4963106;28;20276;-74
2021/12/17 12:00:30;;;;;;;10.65;3.38;;;;;;;8.15;100.00;104042.06;4966773;28;20039;-75
2021/12/17 12:03:12;;;;;;;5.15;2.92;;;;;;;8.20;100.00;104053.59;4963463;28;20097;-74
2021/12/17 12:05:40;;;;;;;6.05;3.72;;;;;;;8.23;100.00;104045.47;4960057;28;20026;-75
2021/12/17 12:08:28;;;;;;;8.23;3.22;;;;;;;8.15;100.00;104047.41;4961920;28;20778;-75
2021/12/17 12:11:22;;;;;;;7.22;3.40;;;;;;;8.21;100.00;104049.09;4962730;28;20023;-75
2021/12/17 12:13:50;;;;;;;4.50;2.95;;;;;;;8.21;100.00;104049.97;4960535;28;20031;-75
2021/12/17 12:16:17;;;;;;;7.50;3.53;;;;;;;8.16;100.00;104046.50;4962480;28;20055;-75
2021/12/17 12:18:46;;;;;;;5.60;3.25;;;;;;;8.06;100.00;104045.78;4963904;28;20458;-74
2021/12/17 12:21:16;;;;;;;5.82;2.70;;;;;;;8.08;100.00;104032.34;4947175;28;20030;-68
2021/12/17 12:23:44;;;;;;;4.57;2.70;;;;;;;8.16;100.00;104041.16;4966105;28;20030;-68
2021/12/17 12:26:13;;;;;;;4.20;2.45;;;;;;;8.06;100.00;104043.09;4961565;28;20023;-68
2021/12/17 12:29:05;;;;;;;3.22;2.13;;;;;;;8.09;100.00;104039.47;4958111;28;20154;-68
2021/12/17 12:31:33;;;;;;;2.60;1.92;;;;;;;8.08;100.00;104038.56;4962203;28;20039;-69
2021/12/17 12:36:41;;;;;;;3.08;2.17;;;;;;;8.13;100.00;104030.50;4964482;28;20073;-69
2021/12/17 12:39:13;;;;;;;5.85;2.35;;;;;;;8.00;100.00;104035.16;4967398;28;20043;-68
2021/12/17 12:41:46;;;;;;;3.75;2.63;;;;;;;7.91;100.00;104029.94;4972419;28;20034;-74
2021/12/17 12:44:11;;;;;;;4.97;2.70;;;;;;;7.95;100.00;104031.66;4967593;28;20077;-72
2021/12/17 12:46:51;;;;;;;4.00;2.78;;;;;;;7.88;100.00;104025.53;4964549;28;20046;-75
2021/12/17 12:49:47;;;;;;;5.38;2.72;;;;;;;7.95;100.00;104028.97;4961158;28;20713;-74
2021/12/17 12:52:34;;;;;;;4.03;2.90;;;;;;;7.99;100.00;104037.84;4952728;28;20126;-74
2021/12/17 12:55:06;;;;;;;5.07;2.83;;;;;;;7.88;100.00;104028.22;4960333;28;20056;-74
2021/12/17 12:57:34;;;;;;;5.95;3.15;;;;;;;7.88;100.00;104036.22;4964845;28;20089;-74
2021/12/17 13:00:03;;;;;;;4.35;3.08;;;;;;;7.83;100.00;104014.00;4946380;28;20031;-74
2021/12/17 13:02:28;;;;;;;5.38;3.10;;;;;;;7.82;100.00;104036.31;4965545;28;20454;-76
2021/12/17 13:04:55;;;;;;;4.95;2.95;;;;;;;7.73;100.00;104033.75;4963905;28;20033;-75
2021/12/17 13:07:52;;;;;;;4.75;3.15;;;;;;;7.79;100.00;104028.34;4933817;28;20113;-75
2021/12/17 13:10:20;;;;;;;5.18;2.75;;;;;;;7.65;100.00;104016.06;4938291;28;20060;-74
2021/12/17 13:12:53;;;;;;;4.68;2.63;;;;;;;7.63;100.00;104007.19;4949263;28;20030;-74
2021/12/17 13:16:04;;;;;;;3.03;2.05;;;;;;;7.71;100.00;104019.53;4946436;28;20115;-74
2021/12/17 13:24:13;;;;;;;2.65;2.25;;;;;;;7.48;100.00;104015.41;4962088;28;20035;-75
2021/12/17 13:27:11;;;;;;;4.25;2.08;;;;;;;7.67;100.00;104028.53;4947517;28;20529;-75
2021/12/17 13:29:39;;;;;;;3.85;2.20;;;;;;;7.68;100.00;104028.50;4959006;28;20069;-75
2021/12/17 13:32:16;;;;;;;1.67;1.50;;;;;;;7.72;100.00;104026.66;4946313;28;21064;-74
2021/12/17 13:34:47;;;;;;;2.83;1.77;;;;;;;7.79;100.00;104023.88;4950196;28;20038;-75
2021/12/17 13:37:18;;;;;;;3.13;1.40;;;;;;;7.88;100.00;104013.94;4963280;28;20034;-75
2021/12/17 13:39:54;;;;;;;3.22;1.88;;;;;;;7.80;100.00;104014.94;4965602;28;20567;-75
2021/12/17 13:42:26;;;;;;;2.15;1.38;;;;;;;7.74;100.00;103999.00;4963553;28;20542;-75
2021/12/17 13:45:02;;;;;;;3.60;1.65;;;;;;;7.83;100.00;104005.09;4963171;28;20023;-75
2021/12/17 13:47:40;;;;;;;2.70;1.98;;;;;;;7.78;100.00;103992.69;4961382;28;20027;-75
2021/12/17 13:50:29;;;;;;;1.85;1.75;;;;;;;7.95;100.00;104010.25;4946465;28;20039;-75
2021/12/17 13:53:03;;;;;;;2.92;1.77;;;;;;;7.92;100.00;104011.19;4960565;28;20027;-75
2021/12/17 13:55:30;;;;;;;;;;;;;;;7.92;100.00;104013.88;4951900;28;20034;-75
2021/12/17 13:57:57;;;;;;;3.58;2.10;;;;;;;8.01;100.00;104002.13;4962354;28;19984;-75
2021/12/17 14:00:31;;;;;;;3.03;2.20;;;;;;;8.03;100.00;104013.69;4965696;28;20039;-75
2021/12/17 14:02:58;;;;;;;2.95;2.00;;;;;;;8.10;100.00;104011.81;4965875;28;20027;-75
2021/12/17 14:05:27;;;;;;;3.70;2.60;;;;;;;8.19;100.00;104018.78;4960812;28;20677;-74
2021/12/17 14:07:55;;;;;;;3.22;2.15;;;;;;;8.10;100.00;104010.00;4948108;28;20065;-74
2021/12/17 14:10:23;;;;;;;4.78;3.30;;;;;;;8.05;100.00;104003.84;4927751;28;20444;-73
2021/12/17 14:12:49;;;;;;;3.97;3.53;;;;;;;7.98;100.00;103994.16;4966409;28;20022;-75
2021/12/17 14:15:20;;;;;;;3.97;3.58;;;;;;;8.02;100.00;103998.56;4964335;28;20690;-75
2021/12/17 14:17:48;;;;;;;5.78;3.67;;;;;;;8.12;100.00;104001.97;4960734;28;20038;-75